Otaru, Japan
Current Conditions -  °F | °C
As of 7:50 PM on Wednesday 28 Jan 2015 (Local Time) from RJCO Reporting Station
Snow Showers Snow Showers  
Wind Chill:   Ceiling: 3000
Heat Index: 21°   Visibility: 2.5mi
Dew Point: 19°   Wind: 13mph
Humidity: 93%   Direction: 300°WNW
Pressure: 30.03"   Gusts: NA
Location:  43.2°N, 141°E
Report Text: RJCO 281050Z 30011KT 4000 R32/P1800 -SHSN FEW008 SCT015 BKN030 M06/M07 Q1017 RMK 1ST008 3ST015 7CU030 A3005
Loading
Personal Weather Stations






























Interactive Weather Map New forecast layout! Learn more

10-Day Weather Forecast

Advertisements
Track Severe Weather on mobile